Watkinsville, Georgia
Current Conditions -  °F | °C
As of 5:51 PM on Thursday 23 Oct 2014 (Local Time) from KAHN Reporting Station
Clear Clear  
Wind Chill: 68°   Ceiling: Unl
Heat Index: 68°   Visibility: 10mi
Dew Point: 39°   Wind: 3mph
Humidity: 35%   Direction: 330°NNW
Pressure: 30.01"   Gusts: NA
Location:  33.86°N, 83.41°W
Report Text: KAHN 232151Z 33003KT 10SM CLR 20/04 A3001 RMK AO2 SLP161 T02000039
Loading
Personal Weather Stations






























Interactive Weather Map
Tropical Storm Tracking
New forecast layout! Learn more

10-Day Weather Forecast

Advertisements
Track Severe Weather on mobile